sensor_id;sensor_type;location;lat;lon;timestamp;P1;durP1;ratioP1;P2;durP2;ratioP2
7340;SDS011;6870;50.944;6.932;2023-03-19T00:00:45;6.83;;;2.80;;
7340;SDS011;6870;50.944;6.932;2023-03-19T00:03:13;30.33;;;5.03;;
7340;SDS011;6870;50.944;6.932;2023-03-19T00:05:50;16.30;;;3.90;;
7340;SDS011;6870;50.944;6.932;2023-03-19T00:08:19;17.63;;;4.47;;
7340;SDS011;6870;50.944;6.932;2023-03-19T00:10:47;15.63;;;4.33;;
7340;SDS011;6870;50.944;6.932;2023-03-19T00:13:16;17.50;;;4.43;;
7340;SDS011;6870;50.944;6.932;2023-03-19T00:15:44;19.60;;;3.90;;
7340;SDS011;6870;50.944;6.932;2023-03-19T00:18:13;20.77;;;4.00;;
7340;SDS011;6870;50.944;6.932;2023-03-19T00:20:41;19.30;;;3.73;;
7340;SDS011;6870;50.944;6.932;2023-03-19T00:23:11;20.70;;;4.20;;
7340;SDS011;6870;50.944;6.932;2023-03-19T00:25:39;24.73;;;4.63;;
7340;SDS011;6870;50.944;6.932;2023-03-19T00:28:07;17.67;;;4.03;;
7340;SDS011;6870;50.944;6.932;2023-03-19T00:30:35;16.27;;;3.47;;
7340;SDS011;6870;50.944;6.932;2023-03-19T00:33:03;12.50;;;4.27;;
7340;SDS011;6870;50.944;6.932;2023-03-19T00:35:32;7.30;;;3.70;;
7340;SDS011;6870;50.944;6.932;2023-03-19T00:38:00;15.10;;;3.47;;
7340;SDS011;6870;50.944;6.932;2023-03-19T00:40:30;12.90;;;4.50;;
7340;SDS011;6870;50.944;6.932;2023-03-19T00:42:58;19.87;;;4.13;;
7340;SDS011;6870;50.944;6.932;2023-03-19T00:45:26;9.33;;;3.00;;
7340;SDS011;6870;50.944;6.932;2023-03-19T00:47:56;12.10;;;3.40;;
7340;SDS011;6870;50.944;6.932;2023-03-19T00:50:24;11.80;;;4.13;;
7340;SDS011;6870;50.944;6.932;2023-03-19T00:52:52;8.23;;;2.70;;
7340;SDS011;6870;50.944;6.932;2023-03-19T00:55:20;17.23;;;3.30;;
7340;SDS011;6870;50.944;6.932;2023-03-19T00:57:50;4.30;;;2.30;;
7340;SDS011;6870;50.944;6.932;2023-03-19T01:00:19;6.73;;;2.50;;
7340;SDS011;6870;50.944;6.932;2023-03-19T01:02:47;12.10;;;2.30;;
7340;SDS011;6870;50.944;6.932;2023-03-19T01:05:15;9.50;;;2.93;;
7340;SDS011;6870;50.944;6.932;2023-03-19T01:07:43;8.13;;;2.67;;
7340;SDS011;6870;50.944;6.932;2023-03-19T01:10:12;10.03;;;3.50;;
7340;SDS011;6870;50.944;6.932;2023-03-19T01:12:39;9.47;;;2.80;;
7340;SDS011;6870;50.944;6.932;2023-03-19T01:15:09;7.13;;;2.87;;
7340;SDS011;6870;50.944;6.932;2023-03-19T01:17:38;8.07;;;2.67;;
7340;SDS011;6870;50.944;6.932;2023-03-19T01:20:08;13.17;;;2.77;;
7340;SDS011;6870;50.944;6.932;2023-03-19T01:22:40;9.43;;;2.73;;
7340;SDS011;6870;50.944;6.932;2023-03-19T01:25:09;8.93;;;2.20;;
7340;SDS011;6870;50.944;6.932;2023-03-19T01:27:39;8.57;;;2.80;;
7340;SDS011;6870;50.944;6.932;2023-03-19T01:30:09;8.23;;;3.47;;
7340;SDS011;6870;50.944;6.932;2023-03-19T01:32:38;11.87;;;3.10;;
7340;SDS011;6870;50.944;6.932;2023-03-19T01:35:06;9.37;;;2.50;;
7340;SDS011;6870;50.944;6.932;2023-03-19T01:37:36;8.37;;;2.60;;
7340;SDS011;6870;50.944;6.932;2023-03-19T01:40:04;10.40;;;2.87;;
7340;SDS011;6870;50.944;6.932;2023-03-19T01:42:49;3.83;;;2.30;;
7340;SDS011;6870;50.944;6.932;2023-03-19T01:45:31;5.83;;;2.40;;
7340;SDS011;6870;50.944;6.932;2023-03-19T01:48:05;6.70;;;2.43;;
7340;SDS011;6870;50.944;6.932;2023-03-19T01:50:43;4.90;;;2.50;;
7340;SDS011;6870;50.944;6.932;2023-03-19T01:53:12;10.27;;;2.30;;
7340;SDS011;6870;50.944;6.932;2023-03-19T01:55:44;9.47;;;3.17;;
7340;SDS011;6870;50.944;6.932;2023-03-19T01:58:13;10.00;;;3.27;;
7340;SDS011;6870;50.944;6.932;2023-03-19T02:00:43;5.60;;;2.57;;
7340;SDS011;6870;50.944;6.932;2023-03-19T02:03:12;5.57;;;2.60;;
7340;SDS011;6870;50.944;6.932;2023-03-19T02:05:40;9.87;;;3.80;;
7340;SDS011;6870;50.944;6.932;2023-03-19T02:08:12;8.80;;;2.50;;
7340;SDS011;6870;50.944;6.932;2023-03-19T02:10:43;6.33;;;2.30;;
7340;SDS011;6870;50.944;6.932;2023-03-19T02:13:13;12.90;;;3.63;;
7340;SDS011;6870;50.944;6.932;2023-03-19T02:15:41;10.57;;;3.07;;
7340;SDS011;6870;50.944;6.932;2023-03-19T02:18:11;9.20;;;2.40;;
7340;SDS011;6870;50.944;6.932;2023-03-19T02:20:42;20.13;;;3.27;;
7340;SDS011;6870;50.944;6.932;2023-03-19T02:23:19;7.20;;;2.63;;
7340;SDS011;6870;50.944;6.932;2023-03-19T02:26:01;5.23;;;2.40;;
7340;SDS011;6870;50.944;6.932;2023-03-19T02:28:31;10.37;;;3.03;;
7340;SDS011;6870;50.944;6.932;2023-03-19T02:31:03;9.50;;;2.07;;
7340;SDS011;6870;50.944;6.932;2023-03-19T02:33:32;11.87;;;2.77;;
7340;SDS011;6870;50.944;6.932;2023-03-19T02:36:01;6.77;;;2.40;;
7340;SDS011;6870;50.944;6.932;2023-03-19T02:38:31;5.10;;;2.43;;
7340;SDS011;6870;50.944;6.932;2023-03-19T02:41:03;9.00;;;2.50;;
7340;SDS011;6870;50.944;6.932;2023-03-19T02:43:35;5.60;;;2.20;;
7340;SDS011;6870;50.944;6.932;2023-03-19T02:46:06;8.33;;;2.83;;
7340;SDS011;6870;50.944;6.932;2023-03-19T02:48:38;10.60;;;2.57;;
7340;SDS011;6870;50.944;6.932;2023-03-19T02:51:06;8.30;;;2.50;;
7340;SDS011;6870;50.944;6.932;2023-03-19T02:53:34;8.77;;;2.33;;
7340;SDS011;6870;50.944;6.932;2023-03-19T02:56:04;36.03;;;3.30;;
7340;SDS011;6870;50.944;6.932;2023-03-19T02:58:33;5.47;;;1.60;;
7340;SDS011;6870;50.944;6.932;2023-03-19T03:01:01;11.33;;;3.10;;
7340;SDS011;6870;50.944;6.932;2023-03-19T03:03:30;9.97;;;2.63;;
7340;SDS011;6870;50.944;6.932;2023-03-19T03:05:58;7.60;;;2.70;;
7340;SDS011;6870;50.944;6.932;2023-03-19T03:08:26;11.40;;;3.07;;
7340;SDS011;6870;50.944;6.932;2023-03-19T03:10:54;8.87;;;2.20;;
7340;SDS011;6870;50.944;6.932;2023-03-19T03:13:24;12.73;;;3.10;;
7340;SDS011;6870;50.944;6.932;2023-03-19T03:15:53;3.80;;;2.10;;
7340;SDS011;6870;50.944;6.932;2023-03-19T03:18:21;8.70;;;2.47;;
7340;SDS011;6870;50.944;6.932;2023-03-19T03:20:49;9.30;;;2.73;;
7340;SDS011;6870;50.944;6.932;2023-03-19T03:23:17;8.93;;;2.30;;
7340;SDS011;6870;50.944;6.932;2023-03-19T03:25:48;7.83;;;2.40;;
7340;SDS011;6870;50.944;6.932;2023-03-19T03:28:16;4.90;;;2.00;;
7340;SDS011;6870;50.944;6.932;2023-03-19T03:30:46;6.27;;;2.37;;
7340;SDS011;6870;50.944;6.932;2023-03-19T03:33:14;7.93;;;2.60;;
7340;SDS011;6870;50.944;6.932;2023-03-19T03:35:43;3.90;;;2.10;;
7340;SDS011;6870;50.944;6.932;2023-03-19T03:38:11;8.93;;;2.30;;
7340;SDS011;6870;50.944;6.932;2023-03-19T03:40:39;10.07;;;2.47;;
7340;SDS011;6870;50.944;6.932;2023-03-19T03:43:07;6.10;;;2.20;;
7340;SDS011;6870;50.944;6.932;2023-03-19T03:45:36;6.00;;;2.50;;
7340;SDS011;6870;50.944;6.932;2023-03-19T03:48:05;7.60;;;2.63;;
7340;SDS011;6870;50.944;6.932;2023-03-19T03:50:33;5.00;;;2.13;;
7340;SDS011;6870;50.944;6.932;2023-03-19T03:53:01;7.30;;;2.17;;
7340;SDS011;6870;50.944;6.932;2023-03-19T03:55:30;6.53;;;2.33;;
7340;SDS011;6870;50.944;6.932;2023-03-19T03:57:58;5.30;;;2.10;;
7340;SDS011;6870;50.944;6.932;2023-03-19T04:00:26;5.83;;;2.03;;
7340;SDS011;6870;50.944;6.932;2023-03-19T04:02:54;4.40;;;1.97;;
7340;SDS011;6870;50.944;6.932;2023-03-19T04:05:24;6.17;;;2.50;;
7340;SDS011;6870;50.944;6.932;2023-03-19T04:07:52;5.23;;;1.90;;
7340;SDS011;6870;50.944;6.932;2023-03-19T04:10:21;4.03;;;1.47;;
7340;SDS011;6870;50.944;6.932;2023-03-19T04:12:49;4.47;;;2.30;;
7340;SDS011;6870;50.944;6.932;2023-03-19T04:15:17;5.10;;;2.27;;
7340;SDS011;6870;50.944;6.932;2023-03-19T04:17:46;5.40;;;2.00;;
7340;SDS011;6870;50.944;6.932;2023-03-19T04:20:14;2.77;;;1.47;;
7340;SDS011;6870;50.944;6.932;2023-03-19T04:22:45;8.27;;;2.57;;
7340;SDS011;6870;50.944;6.932;2023-03-19T04:25:13;5.80;;;2.00;;
7340;SDS011;6870;50.944;6.932;2023-03-19T04:27:41;3.30;;;1.60;;
7340;SDS011;6870;50.944;6.932;2023-03-19T04:30:09;3.50;;;1.73;;
7340;SDS011;6870;50.944;6.932;2023-03-19T04:32:38;6.13;;;2.30;;
7340;SDS011;6870;50.944;6.932;2023-03-19T04:35:07;6.00;;;2.70;;
7340;SDS011;6870;50.944;6.932;2023-03-19T04:37:35;4.33;;;1.80;;
7340;SDS011;6870;50.944;6.932;2023-03-19T04:40:05;8.70;;;2.13;;
7340;SDS011;6870;50.944;6.932;2023-03-19T04:42:35;5.50;;;1.60;;
7340;SDS011;6870;50.944;6.932;2023-03-19T04:45:03;4.83;;;2.03;;
7340;SDS011;6870;50.944;6.932;2023-03-19T04:47:32;34.77;;;3.93;;
7340;SDS011;6870;50.944;6.932;2023-03-19T04:50:00;3.73;;;1.53;;
7340;SDS011;6870;50.944;6.932;2023-03-19T04:52:28;6.37;;;2.20;;
7340;SDS011;6870;50.944;6.932;2023-03-19T04:54:57;10.97;;;3.70;;
7340;SDS011;6870;50.944;6.932;2023-03-19T04:57:26;6.17;;;3.13;;
7340;SDS011;6870;50.944;6.932;2023-03-19T04:59:54;7.00;;;2.00;;
7340;SDS011;6870;50.944;6.932;2023-03-19T05:02:22;12.27;;;2.33;;
7340;SDS011;6870;50.944;6.932;2023-03-19T05:04:50;9.03;;;2.50;;
7340;SDS011;6870;50.944;6.932;2023-03-19T05:07:18;6.63;;;2.87;;
7340;SDS011;6870;50.944;6.932;2023-03-19T05:09:47;11.10;;;3.00;;
7340;SDS011;6870;50.944;6.932;2023-03-19T05:12:15;8.83;;;2.20;;
7340;SDS011;6870;50.944;6.932;2023-03-19T05:14:44;9.13;;;2.60;;
7340;SDS011;6870;50.944;6.932;2023-03-19T05:17:12;9.90;;;2.67;;
7340;SDS011;6870;50.944;6.932;2023-03-19T05:19:40;7.30;;;2.30;;
7340;SDS011;6870;50.944;6.932;2023-03-19T05:22:09;5.87;;;2.00;;
7340;SDS011;6870;50.944;6.932;2023-03-19T05:24:37;8.30;;;2.30;;
7340;SDS011;6870;50.944;6.932;2023-03-19T05:27:05;7.53;;;2.40;;
7340;SDS011;6870;50.944;6.932;2023-03-19T05:29:33;13.00;;;3.03;;
7340;SDS011;6870;50.944;6.932;2023-03-19T05:32:06;6.87;;;1.87;;
7340;SDS011;6870;50.944;6.932;2023-03-19T05:34:36;9.23;;;3.27;;
7340;SDS011;6870;50.944;6.932;2023-03-19T05:37:04;4.63;;;2.10;;
7340;SDS011;6870;50.944;6.932;2023-03-19T05:39:33;6.80;;;2.50;;
7340;SDS011;6870;50.944;6.932;2023-03-19T05:42:01;5.37;;;2.20;;
7340;SDS011;6870;50.944;6.932;2023-03-19T05:44:30;8.37;;;2.57;;
7340;SDS011;6870;50.944;6.932;2023-03-19T05:46:58;15.50;;;2.60;;
7340;SDS011;6870;50.944;6.932;2023-03-19T05:49:27;7.40;;;2.77;;
7340;SDS011;6870;50.944;6.932;2023-03-19T05:51:55;8.13;;;2.80;;
7340;SDS011;6870;50.944;6.932;2023-03-19T05:54:23;6.50;;;3.00;;
7340;SDS011;6870;50.944;6.932;2023-03-19T05:56:52;8.63;;;2.37;;
7340;SDS011;6870;50.944;6.932;2023-03-19T05:59:20;5.23;;;2.20;;
7340;SDS011;6870;50.944;6.932;2023-03-19T06:01:48;5.53;;;2.27;;
7340;SDS011;6870;50.944;6.932;2023-03-19T06:04:16;5.97;;;2.10;;
7340;SDS011;6870;50.944;6.932;2023-03-19T06:06:45;8.17;;;2.30;;
7340;SDS011;6870;50.944;6.932;2023-03-19T06:09:13;5.67;;;2.50;;
7340;SDS011;6870;50.944;6.932;2023-03-19T06:11:41;9.90;;;2.70;;
7340;SDS011;6870;50.944;6.932;2023-03-19T06:14:09;12.17;;;2.20;;
7340;SDS011;6870;50.944;6.932;2023-03-19T06:16:37;10.00;;;2.80;;
7340;SDS011;6870;50.944;6.932;2023-03-19T06:19:06;14.17;;;2.53;;
7340;SDS011;6870;50.944;6.932;2023-03-19T06:21:34;9.10;;;2.60;;
7340;SDS011;6870;50.944;6.932;2023-03-19T06:24:03;6.60;;;2.03;;
7340;SDS011;6870;50.944;6.932;2023-03-19T06:26:32;6.87;;;2.77;;
7340;SDS011;6870;50.944;6.932;2023-03-19T06:29:02;12.77;;;2.90;;
7340;SDS011;6870;50.944;6.932;2023-03-19T06:31:30;7.93;;;3.30;;
7340;SDS011;6870;50.944;6.932;2023-03-19T06:33:58;11.40;;;2.57;;
7340;SDS011;6870;50.944;6.932;2023-03-19T06:36:26;7.43;;;2.50;;
7340;SDS011;6870;50.944;6.932;2023-03-19T06:38:55;9.77;;;2.70;;
7340;SDS011;6870;50.944;6.932;2023-03-19T06:41:24;11.93;;;3.20;;
7340;SDS011;6870;50.944;6.932;2023-03-19T06:43:52;7.00;;;2.67;;
7340;SDS011;6870;50.944;6.932;2023-03-19T06:46:20;15.77;;;3.33;;
7340;SDS011;6870;50.944;6.932;2023-03-19T06:48:48;6.60;;;2.50;;
7340;SDS011;6870;50.944;6.932;2023-03-19T06:51:18;14.67;;;2.40;;
7340;SDS011;6870;50.944;6.932;2023-03-19T06:53:46;7.30;;;2.17;;
7340;SDS011;6870;50.944;6.932;2023-03-19T06:56:14;14.43;;;3.50;;
7340;SDS011;6870;50.944;6.932;2023-03-19T06:58:43;17.30;;;3.97;;
7340;SDS011;6870;50.944;6.932;2023-03-19T07:01:11;38.73;;;6.30;;
7340;SDS011;6870;50.944;6.932;2023-03-19T07:03:39;29.60;;;5.70;;
7340;SDS011;6870;50.944;6.932;2023-03-19T07:06:07;34.77;;;5.37;;
7340;SDS011;6870;50.944;6.932;2023-03-19T07:08:35;35.03;;;6.70;;
7340;SDS011;6870;50.944;6.932;2023-03-19T07:11:04;22.37;;;5.57;;
7340;SDS011;6870;50.944;6.932;2023-03-19T07:13:33;23.73;;;5.60;;
7340;SDS011;6870;50.944;6.932;2023-03-19T07:16:04;27.30;;;5.53;;
7340;SDS011;6870;50.944;6.932;2023-03-19T07:18:33;28.50;;;5.43;;
7340;SDS011;6870;50.944;6.932;2023-03-19T07:21:01;15.40;;;4.93;;
7340;SDS011;6870;50.944;6.932;2023-03-19T07:23:30;15.63;;;4.10;;
7340;SDS011;6870;50.944;6.932;2023-03-19T07:25:58;20.70;;;4.80;;
7340;SDS011;6870;50.944;6.932;2023-03-19T07:28:26;18.17;;;4.80;;
7340;SDS011;6870;50.944;6.932;2023-03-19T07:30:54;13.23;;;4.00;;
7340;SDS011;6870;50.944;6.932;2023-03-19T07:33:24;17.20;;;4.40;;
7340;SDS011;6870;50.944;6.932;2023-03-19T07:35:52;17.93;;;4.37;;
7340;SDS011;6870;50.944;6.932;2023-03-19T07:38:20;11.17;;;4.20;;
7340;SDS011;6870;50.944;6.932;2023-03-19T07:40:48;13.80;;;3.77;;
7340;SDS011;6870;50.944;6.932;2023-03-19T07:43:27;15.90;;;3.13;;
7340;SDS011;6870;50.944;6.932;2023-03-19T07:45:56;21.40;;;5.33;;
7340;SDS011;6870;50.944;6.932;2023-03-19T07:48:27;38.77;;;6.37;;
7340;SDS011;6870;50.944;6.932;2023-03-19T07:50:55;20.23;;;5.07;;
7340;SDS011;6870;50.944;6.932;2023-03-19T07:53:23;17.47;;;4.60;;
7340;SDS011;6870;50.944;6.932;2023-03-19T07:55:51;20.73;;;6.33;;
7340;SDS011;6870;50.944;6.932;2023-03-19T07:58:19;14.20;;;3.87;;
7340;SDS011;6870;50.944;6.932;2023-03-19T08:00:47;28.53;;;5.00;;
7340;SDS011;6870;50.944;6.932;2023-03-19T08:03:15;31.70;;;4.83;;
7340;SDS011;6870;50.944;6.932;2023-03-19T08:05:46;11.50;;;3.00;;
7340;SDS011;6870;50.944;6.932;2023-03-19T08:08:15;5.70;;;2.50;;
7340;SDS011;6870;50.944;6.932;2023-03-19T08:10:44;6.30;;;1.80;;
7340;SDS011;6870;50.944;6.932;2023-03-19T08:13:13;7.30;;;3.33;;
7340;SDS011;6870;50.944;6.932;2023-03-19T08:15:41;22.70;;;3.60;;
7340;SDS011;6870;50.944;6.932;2023-03-19T08:18:09;20.13;;;3.10;;
7340;SDS011;6870;50.944;6.932;2023-03-19T08:20:37;11.10;;;3.10;;
7340;SDS011;6870;50.944;6.932;2023-03-19T08:23:06;11.20;;;3.60;;
7340;SDS011;6870;50.944;6.932;2023-03-19T08:25:35;12.53;;;3.20;;
7340;SDS011;6870;50.944;6.932;2023-03-19T08:28:03;18.97;;;3.50;;
7340;SDS011;6870;50.944;6.932;2023-03-19T08:30:32;11.43;;;3.77;;
7340;SDS011;6870;50.944;6.932;2023-03-19T08:33:01;17.70;;;3.47;;
7340;SDS011;6870;50.944;6.932;2023-03-19T08:35:30;10.93;;;3.53;;
7340;SDS011;6870;50.944;6.932;2023-03-19T08:37:58;8.97;;;3.50;;
7340;SDS011;6870;50.944;6.932;2023-03-19T08:40:27;9.40;;;3.87;;
7340;SDS011;6870;50.944;6.932;2023-03-19T08:42:55;9.03;;;3.13;;
7340;SDS011;6870;50.944;6.932;2023-03-19T08:45:24;13.93;;;4.10;;
7340;SDS011;6870;50.944;6.932;2023-03-19T08:47:52;8.43;;;3.80;;
7340;SDS011;6870;50.944;6.932;2023-03-19T08:50:20;6.00;;;3.00;;
7340;SDS011;6870;50.944;6.932;2023-03-19T08:52:48;6.70;;;3.00;;
7340;SDS011;6870;50.944;6.932;2023-03-19T08:55:16;8.47;;;3.20;;
7340;SDS011;6870;50.944;6.932;2023-03-19T08:57:45;10.43;;;3.40;;
7340;SDS011;6870;50.944;6.932;2023-03-19T09:00:14;17.03;;;4.03;;
7340;SDS011;6870;50.944;6.932;2023-03-19T09:02:44;9.73;;;4.07;;
7340;SDS011;6870;50.944;6.932;2023-03-19T09:05:12;7.07;;;2.80;;
7340;SDS011;6870;50.944;6.932;2023-03-19T09:07:41;5.00;;;2.70;;
7340;SDS011;6870;50.944;6.932;2023-03-19T09:10:09;7.03;;;3.03;;
7340;SDS011;6870;50.944;6.932;2023-03-19T09:12:37;8.37;;;2.67;;
7340;SDS011;6870;50.944;6.932;2023-03-19T09:15:07;4.90;;;2.50;;
7340;SDS011;6870;50.944;6.932;2023-03-19T09:17:36;10.87;;;3.80;;
7340;SDS011;6870;50.944;6.932;2023-03-19T09:20:04;21.53;;;4.20;;
7340;SDS011;6870;50.944;6.932;2023-03-19T09:22:34;15.57;;;4.40;;
7340;SDS011;6870;50.944;6.932;2023-03-19T09:25:02;8.00;;;3.00;;
7340;SDS011;6870;50.944;6.932;2023-03-19T09:27:31;6.57;;;2.37;;
7340;SDS011;6870;50.944;6.932;2023-03-19T09:29:59;3.23;;;2.10;;
7340;SDS011;6870;50.944;6.932;2023-03-19T09:32:29;5.87;;;2.10;;
7340;SDS011;6870;50.944;6.932;2023-03-19T09:34:57;3.57;;;1.87;;
7340;SDS011;6870;50.944;6.932;2023-03-19T09:37:25;3.40;;;1.90;;
7340;SDS011;6870;50.944;6.932;2023-03-19T09:39:53;4.27;;;1.60;;
7340;SDS011;6870;50.944;6.932;2023-03-19T09:42:26;2.43;;;1.50;;
7340;SDS011;6870;50.944;6.932;2023-03-19T09:45:08;3.53;;;1.70;;
7340;SDS011;6870;50.944;6.932;2023-03-19T09:47:43;2.20;;;1.20;;
7340;SDS011;6870;50.944;6.932;2023-03-19T09:50:16;2.33;;;1.30;;
7340;SDS011;6870;50.944;6.932;2023-03-19T09:52:48;2.00;;;1.10;;
7340;SDS011;6870;50.944;6.932;2023-03-19T09:55:27;2.63;;;1.20;;
7340;SDS011;6870;50.944;6.932;2023-03-19T09:58:07;1.70;;;1.10;;
7340;SDS011;6870;50.944;6.932;2023-03-19T10:00:42;3.53;;;1.47;;
7340;SDS011;6870;50.944;6.932;2023-03-19T10:03:20;1.90;;;1.20;;
7340;SDS011;6870;50.944;6.932;2023-03-19T10:06:05;1.70;;;1.17;;
7340;SDS011;6870;50.944;6.932;2023-03-19T10:08:52;1.33;;;0.90;;
7340;SDS011;6870;50.944;6.932;2023-03-19T10:11:40;1.60;;;1.10;;
7340;SDS011;6870;50.944;6.932;2023-03-19T10:17:15;1.40;;;0.90;;
7340;SDS011;6870;50.944;6.932;2023-03-19T10:19:50;2.00;;;1.10;;
7340;SDS011;6870;50.944;6.932;2023-03-19T10:22:22;1.30;;;0.70;;
7340;SDS011;6870;50.944;6.932;2023-03-19T10:24:55;2.30;;;0.97;;
7340;SDS011;6870;50.944;6.932;2023-03-19T10:27:25;1.30;;;0.87;;
7340;SDS011;6870;50.944;6.932;2023-03-19T10:29:55;1.70;;;0.83;;
7340;SDS011;6870;50.944;6.932;2023-03-19T10:32:26;1.83;;;1.13;;
7340;SDS011;6870;50.944;6.932;2023-03-19T10:35:05;2.57;;;0.93;;
7340;SDS011;6870;50.944;6.932;2023-03-19T10:37:38;1.60;;;1.00;;
7340;SDS011;6870;50.944;6.932;2023-03-19T10:40:10;3.23;;;1.07;;
7340;SDS011;6870;50.944;6.932;2023-03-19T10:42:56;1.87;;;0.90;;
7340;SDS011;6870;50.944;6.932;2023-03-19T10:45:34;1.50;;;1.07;;
7340;SDS011;6870;50.944;6.932;2023-03-19T10:48:05;1.60;;;1.27;;
7340;SDS011;6870;50.944;6.932;2023-03-19T10:50:44;2.60;;;1.00;;
7340;SDS011;6870;50.944;6.932;2023-03-19T10:53:21;1.80;;;0.87;;
7340;SDS011;6870;50.944;6.932;2023-03-19T10:56:02;1.40;;;1.00;;
7340;SDS011;6870;50.944;6.932;2023-03-19T10:58:32;2.70;;;1.30;;
7340;SDS011;6870;50.944;6.932;2023-03-19T11:01:03;4.57;;;1.27;;
7340;SDS011;6870;50.944;6.932;2023-03-19T11:03:35;1.93;;;1.10;;
7340;SDS011;6870;50.944;6.932;2023-03-19T11:06:11;8.03;;;2.70;;
7340;SDS011;6870;50.944;6.932;2023-03-19T11:08:49;8.33;;;1.73;;
7340;SDS011;6870;50.944;6.932;2023-03-19T11:11:23;7.40;;;1.90;;
7340;SDS011;6870;50.944;6.932;2023-03-19T11:14:07;5.40;;;1.40;;
7340;SDS011;6870;50.944;6.932;2023-03-19T11:16:47;5.43;;;2.30;;
7340;SDS011;6870;50.944;6.932;2023-03-19T11:19:18;9.30;;;2.40;;
7340;SDS011;6870;50.944;6.932;2023-03-19T11:22:00;8.27;;;2.43;;
7340;SDS011;6870;50.944;6.932;2023-03-19T11:24:40;14.93;;;2.10;;
7340;SDS011;6870;50.944;6.932;2023-03-19T11:27:15;5.43;;;1.83;;
7340;SDS011;6870;50.944;6.932;2023-03-19T11:29:44;7.83;;;2.30;;
7340;SDS011;6870;50.944;6.932;2023-03-19T11:32:16;9.77;;;1.90;;
7340;SDS011;6870;50.944;6.932;2023-03-19T11:34:57;4.90;;;1.70;;
7340;SDS011;6870;50.944;6.932;2023-03-19T11:37:32;9.10;;;2.40;;
7340;SDS011;6870;50.944;6.932;2023-03-19T11:40:17;11.60;;;1.93;;
7340;SDS011;6870;50.944;6.932;2023-03-19T11:43:04;4.13;;;2.07;;
7340;SDS011;6870;50.944;6.932;2023-03-19T11:45:53;3.50;;;1.90;;
7340;SDS011;6870;50.944;6.932;2023-03-19T11:48:34;9.50;;;1.67;;
7340;SDS011;6870;50.944;6.932;2023-03-19T11:51:21;5.80;;;1.83;;
7340;SDS011;6870;50.944;6.932;2023-03-19T11:53:59;3.70;;;2.03;;
7340;SDS011;6870;50.944;6.932;2023-03-19T11:56:35;6.23;;;1.53;;
7340;SDS011;6870;50.944;6.932;2023-03-19T11:59:31;8.30;;;1.97;;
7340;SDS011;6870;50.944;6.932;2023-03-19T12:02:24;5.93;;;2.07;;
7340;SDS011;6870;50.944;6.932;2023-03-19T12:05:15;5.60;;;1.93;;
7340;SDS011;6870;50.944;6.932;2023-03-19T12:08:12;4.30;;;1.57;;
7340;SDS011;6870;50.944;6.932;2023-03-19T12:11:00;5.30;;;2.27;;
7340;SDS011;6870;50.944;6.932;2023-03-19T12:13:42;4.53;;;1.80;;
7340;SDS011;6870;50.944;6.932;2023-03-19T12:16:25;8.67;;;2.60;;
7340;SDS011;6870;50.944;6.932;2023-03-19T12:19:11;6.10;;;1.93;;
7340;SDS011;6870;50.944;6.932;2023-03-19T12:22:01;3.50;;;1.70;;
7340;SDS011;6870;50.944;6.932;2023-03-19T12:24:46;4.57;;;2.90;;
7340;SDS011;6870;50.944;6.932;2023-03-19T12:27:31;5.17;;;3.23;;
7340;SDS011;6870;50.944;6.932;2023-03-19T12:30:11;3.33;;;3.00;;
7340;SDS011;6870;50.944;6.932;2023-03-19T12:33:00;4.27;;;3.00;;
7340;SDS011;6870;50.944;6.932;2023-03-19T12:35:38;2.80;;;2.10;;
7340;SDS011;6870;50.944;6.932;2023-03-19T12:38:09;3.00;;;2.40;;
7340;SDS011;6870;50.944;6.932;2023-03-19T12:40:45;6.93;;;2.70;;
7340;SDS011;6870;50.944;6.932;2023-03-19T12:43:22;4.17;;;2.00;;
7340;SDS011;6870;50.944;6.932;2023-03-19T12:45:55;4.60;;;1.93;;
7340;SDS011;6870;50.944;6.932;2023-03-19T12:48:27;4.73;;;1.60;;
7340;SDS011;6870;50.944;6.932;2023-03-19T12:51:02;3.90;;;1.67;;
7340;SDS011;6870;50.944;6.932;2023-03-19T12:53:39;7.07;;;1.83;;
7340;SDS011;6870;50.944;6.932;2023-03-19T12:56:16;2.00;;;1.40;;
7340;SDS011;6870;50.944;6.932;2023-03-19T12:58:54;4.67;;;1.63;;
7340;SDS011;6870;50.944;6.932;2023-03-19T13:01:28;3.43;;;1.23;;
7340;SDS011;6870;50.944;6.932;2023-03-19T13:04:02;7.67;;;1.47;;
7340;SDS011;6870;50.944;6.932;2023-03-19T13:06:36;4.33;;;1.67;;
7340;SDS011;6870;50.944;6.932;2023-03-19T13:09:11;3.80;;;1.47;;
7340;SDS011;6870;50.944;6.932;2023-03-19T13:11:45;3.30;;;1.53;;
7340;SDS011;6870;50.944;6.932;2023-03-19T13:14:20;1.80;;;1.50;;
7340;SDS011;6870;50.944;6.932;2023-03-19T13:16:54;2.30;;;1.70;;
7340;SDS011;6870;50.944;6.932;2023-03-19T13:19:29;2.23;;;1.30;;
7340;SDS011;6870;50.944;6.932;2023-03-19T13:22:13;2.00;;;1.30;;
7340;SDS011;6870;50.944;6.932;2023-03-19T13:24:45;5.43;;;1.77;;
7340;SDS011;6870;50.944;6.932;2023-03-19T13:27:17;4.50;;;1.63;;
7340;SDS011;6870;50.944;6.932;2023-03-19T13:29:57;2.10;;;1.40;;
7340;SDS011;6870;50.944;6.932;2023-03-19T13:32:34;3.43;;;1.83;;
7340;SDS011;6870;50.944;6.932;2023-03-19T13:35:08;2.80;;;1.60;;
7340;SDS011;6870;50.944;6.932;2023-03-19T13:37:53;9.67;;;1.90;;
7340;SDS011;6870;50.944;6.932;2023-03-19T13:40:35;3.90;;;2.30;;
7340;SDS011;6870;50.944;6.932;2023-03-19T13:46:41;3.40;;;1.70;;
7340;SDS011;6870;50.944;6.932;2023-03-19T13:49:24;2.57;;;1.63;;
7340;SDS011;6870;50.944;6.932;2023-03-19T13:52:00;2.47;;;1.50;;
7340;SDS011;6870;50.944;6.932;2023-03-19T13:54:44;4.37;;;1.70;;
7340;SDS011;6870;50.944;6.932;2023-03-19T13:57:16;5.33;;;2.10;;
7340;SDS011;6870;50.944;6.932;2023-03-19T13:59:49;3.80;;;1.50;;
7340;SDS011;6870;50.944;6.932;2023-03-19T14:05:19;3.50;;;1.43;;
7340;SDS011;6870;50.944;6.932;2023-03-19T14:07:50;4.83;;;1.97;;
7340;SDS011;6870;50.944;6.932;2023-03-19T14:10:21;2.33;;;1.50;;
7340;SDS011;6870;50.944;6.932;2023-03-19T14:12:59;6.93;;;2.10;;
7340;SDS011;6870;50.944;6.932;2023-03-19T14:15:32;7.10;;;2.07;;
7340;SDS011;6870;50.944;6.932;2023-03-19T14:18:03;3.50;;;1.60;;
7340;SDS011;6870;50.944;6.932;2023-03-19T14:20:33;3.40;;;1.73;;
7340;SDS011;6870;50.944;6.932;2023-03-19T14:23:18;4.27;;;1.60;;
7340;SDS011;6870;50.944;6.932;2023-03-19T14:26:05;7.73;;;2.40;;
7340;SDS011;6870;50.944;6.932;2023-03-19T14:28:48;4.27;;;2.37;;
7340;SDS011;6870;50.944;6.932;2023-03-19T14:31:25;3.10;;;1.90;;
7340;SDS011;6870;50.944;6.932;2023-03-19T14:34:10;2.10;;;1.37;;
7340;SDS011;6870;50.944;6.932;2023-03-19T14:36:48;4.30;;;1.77;;
7340;SDS011;6870;50.944;6.932;2023-03-19T14:39:24;3.53;;;1.50;;
7340;SDS011;6870;50.944;6.932;2023-03-19T14:41:57;3.13;;;1.50;;
7340;SDS011;6870;50.944;6.932;2023-03-19T14:47:51;12.80;;;2.20;;
7340;SDS011;6870;50.944;6.932;2023-03-19T14:50:49;4.70;;;2.80;;
7340;SDS011;6870;50.944;6.932;2023-03-19T14:53:33;6.60;;;2.57;;
7340;SDS011;6870;50.944;6.932;2023-03-19T14:56:11;9.03;;;2.77;;
7340;SDS011;6870;50.944;6.932;2023-03-19T14:58:48;3.67;;;1.90;;
7340;SDS011;6870;50.944;6.932;2023-03-19T15:01:17;6.77;;;2.37;;
7340;SDS011;6870;50.944;6.932;2023-03-19T15:03:50;6.00;;;2.30;;
7340;SDS011;6870;50.944;6.932;2023-03-19T15:06:22;3.67;;;1.73;;
7340;SDS011;6870;50.944;6.932;2023-03-19T15:08:51;8.60;;;2.10;;
7340;SDS011;6870;50.944;6.932;2023-03-19T15:11:25;3.93;;;2.00;;
7340;SDS011;6870;50.944;6.932;2023-03-19T15:14:15;7.17;;;1.90;;
7340;SDS011;6870;50.944;6.932;2023-03-19T15:17:04;6.33;;;1.80;;
7340;SDS011;6870;50.944;6.932;2023-03-19T15:19:39;6.50;;;2.07;;
7340;SDS011;6870;50.944;6.932;2023-03-19T15:22:11;6.30;;;2.00;;
7340;SDS011;6870;50.944;6.932;2023-03-19T15:24:41;3.20;;;1.73;;
7340;SDS011;6870;50.944;6.932;2023-03-19T15:27:16;5.00;;;1.80;;
7340;SDS011;6870;50.944;6.932;2023-03-19T15:29:47;2.90;;;1.60;;
7340;SDS011;6870;50.944;6.932;2023-03-19T15:32:29;5.00;;;1.90;;
7340;SDS011;6870;50.944;6.932;2023-03-19T15:35:18;6.20;;;2.20;;
7340;SDS011;6870;50.944;6.932;2023-03-19T15:37:51;6.33;;;2.20;;
7340;SDS011;6870;50.944;6.932;2023-03-19T15:40:25;5.03;;;2.10;;
7340;SDS011;6870;50.944;6.932;2023-03-19T15:42:55;6.10;;;1.83;;
7340;SDS011;6870;50.944;6.932;2023-03-19T15:45:27;2.87;;;1.90;;
7340;SDS011;6870;50.944;6.932;2023-03-19T15:47:59;5.97;;;1.70;;
7340;SDS011;6870;50.944;6.932;2023-03-19T15:50:34;4.07;;;2.23;;
7340;SDS011;6870;50.944;6.932;2023-03-19T15:53:09;5.43;;;2.20;;
7340;SDS011;6870;50.944;6.932;2023-03-19T15:55:40;3.90;;;1.60;;